Terminal Aerodrome Forecast
Issued by NWS

Home | Current Version | Previous Version | Text Only | Print | Product List | Glossary On
Versions: 1 2 3 4 5 6 7 8 9 10 11 12 13 14 15 16 17 18 19 20 21 22 23 24 25 26 27 28 29 30 31 32 33 34 35 36 37 38 39 40 41 42 43 44 45 46
637
FTUS43 KDTX 101725
TAFPTK
TAF
KPTK 101725Z 1018/1118 30013G20KT 5SM -SHSN SCT025 BKN035
      TEMPO 1021/1024 1SM -SN OVC025
     FM110000 26013KT P6SM SCT035 BKN045
     FM110400 26010KT P6SM SCT035
     FM111400 28013G20KT P6SM SCT035
     FM111600 30012G20KT P6SM OVC025=

USA.gov is the U.S. government's official web portal to all federal, state and local government web resources and services.